Bittern — V7SR7 — position and weather

sailwx.info

Track history (hours):
 
Tides and Currents Weather Stations Pressure Air Temp Water Temp Dewpoint Dewpoint Depression Visibility Wind Speed Wind Dir Waves Ship Positions

Bittern

Last reported at 2017-Nov-10 23:56 UTC. Time now 2017-Nov-23 16:53 UTC.
Position N 36°21' E 014°47'.
Warning: this ship's position is 12 days out of date.

Length 189 m; draft 11.7 m.

Type: Cargo ship. MMSI: 538003710.

Date/timePositionNaut miles runAvg speedWind from/ knotsBaromVisibWave heightAir tempDewpointWater temp
2017-Nov-10 23:56N 36°21' E 014°47'510.0
2017-Nov-10 23:24N 36°23' E 014°41'410.0
2017-Nov-10 23:00N 36°24' E 014°36'510.0
2017-Nov-10 22:30N 36°25' E 014°30'5 9.6
2017-Nov-10 22:00N 36°27' E 014°25'5 9.3
2017-Nov-10 21:30N 36°29' E 014°19'5 9.5
2017-Nov-10 21:00N 36°30' E 014°14'5 9.7
2017-Nov-10 20:30N 36°32' E 014°08'  
2017-Nov-07 07:40N 36°06' W 004°20'211.2
2017-Nov-07 07:29N 36°05' W 004°23'510.9
2017-Nov-07 07:00N 36°05' W 004°29'510.9
2017-Nov-07 06:30N 36°04' W 004°36'511.0
2017-Nov-07 06:00N 36°03' W 004°43'2911.4
2017-Nov-07 03:28N 35°59' W 005°18'266 8.4
2017-Nov-05 19:50N 38°16' W 010°03'310.1
2017-Nov-05 19:30N 38°19' W 010°04'510.4
2017-Nov-05 19:00N 38°24' W 010°06'610.3
2017-Nov-05 18:28N 38°30' W 010°08'510.2
2017-Nov-05 17:58N 38°34' W 010°10'510.2
2017-Nov-05 17:30N 38°39' W 010°11'5 9.9
2017-Nov-05 17:00N 38°44' W 010°12'510.0
2017-Nov-05 16:30N 38°49' W 010°12'5 9.9
2017-Nov-05 16:00N 38°54' W 010°12'5 9.7
2017-Nov-05 15:30N 38°59' W 010°12'5 9.9
2017-Nov-05 15:00N 39°04' W 010°12'5 9.6
2017-Nov-05 14:30N 39°08' W 010°12'5 9.4
2017-Nov-05 14:00N 39°13' W 010°12'  
2017-Nov-03 04:53N 48°20' W 006°14'610.2
2017-Nov-03 04:15N 48°25' W 006°10'3 9.9
2017-Nov-03 03:56N 48°28' W 006°07'7 9.4
2017-Nov-03 03:12N 48°34' W 006°03'2 9.0
2017-Nov-03 02:56N 48°37' W 006°01'5 8.9
2017-Nov-03 02:21N 48°41' W 005°58'4 8.9
2017-Nov-03 01:52N 48°45' W 005°55'3 9.0
2017-Nov-03 01:30N 48°48' W 005°53'4 9.1
2017-Nov-03 01:00N 48°52' W 005°49'4 9.0
2017-Nov-03 00:30N 48°55' W 005°44'5 9.9
2017-Nov-03 00:00N 48°57' W 005°38'610.5
2017-Nov-02 23:27N 49°00' W 005°30'610.8
2017-Nov-02 22:56N 49°03' W 005°22'611.4
2017-Nov-02 22:23N 49°06' W 005°14'511.7
2017-Nov-02 21:58N 49°09' W 005°08'611.4
2017-Nov-02 21:24N 49°12' W 004°59'612.2
2017-Nov-02 20:55N 49°15' W 004°51'1312.0
2017-Nov-02 19:49N 49°22' W 004°34'411.6
2017-Nov-02 19:29N 49°24' W 004°29'1011.1
2017-Nov-02 18:33N 49°29' W 004°15'110.5
2017-Nov-02 18:26N 49°30' W 004°14'15 9.8
2017-Nov-02 16:57N 49°37' W 003°54'6 9.1
2017-Nov-02 16:19N 49°40' W 003°47'4 9.1
2017-Nov-02 15:53N 49°42' W 003°41'4 9.2
2017-Nov-02 15:28N 49°44' W 003°36'9 9.5
2017-Nov-02 14:33N 49°48' W 003°25'110.0
2017-Nov-02 14:27N 49°49' W 003°23'510.4
2017-Nov-02 14:00N 49°51' W 003°17'611.0
2017-Nov-02 13:30N 49°54' W 003°10'611.8
2017-Nov-02 13:00N 49°57' W 003°02'612.3
2017-Nov-02 12:30N 49°59' W 002°53'712.8
2017-Nov-02 11:58N 50°01' W 002°43'3012.3
2017-Nov-02 09:32N 50°09' W 001°58'011.1
2017-Nov-02 09:30N 50°09' W 001°57'510.3
2017-Nov-02 09:00N 50°11' W 001°49'5 9.5
2017-Nov-02 08:30N 50°12' W 001°42'4 8.7
2017-Nov-02 08:00N 50°13' W 001°36'4 8.2
2017-Nov-02 07:30N 50°14' W 001°29'4 7.7
2017-Nov-02 07:00N 50°15' W 001°24'4 7.3
2017-Nov-02 06:29N 50°15' W 001°18'4 7.3
2017-Nov-02 05:59N 50°16' W 001°12'4 7.3
2017-Nov-02 05:26N 50°18' W 001°06'4 7.9
2017-Nov-02 04:54N 50°19' W 000°60'2110.1
2017-Nov-02 02:50N 50°25' W 000°29'411.4
2017-Nov-02 02:30N 50°26' W 000°23'611.4
2017-Nov-02 02:00N 50°27' W 000°14'611.4
2017-Nov-02 01:30N 50°29' W 000°06'611.5
2017-Nov-02 01:00N 50°30' E 000°03'611.4
2017-Nov-02 00:30N 50°32' E 000°12'611.3
2017-Nov-02 00:00N 50°33' E 000°20'611.0
2017-Nov-01 23:30N 50°35' E 000°29'510.4
2017-Nov-01 23:00N 50°37' E 000°36'510.1
2017-Nov-01 22:30N 50°40' E 000°42'5 9.7
2017-Nov-01 22:00N 50°43' E 000°48'5 9.2
2017-Nov-01 21:30N 50°46' E 000°54'4 8.8
2017-Nov-01 21:00N 50°49' E 000°59'4 8.7
2017-Nov-01 20:30N 50°52' E 001°04'4 8.9
2017-Nov-01 20:00N 50°54' E 001°10'5 9.2
2017-Nov-01 19:30N 50°58' E 001°15'5 9.9
2017-Nov-01 19:00N 51°01' E 001°21'511.2
2017-Nov-01 18:30N 51°04' E 001°28'122 7.4
2017-Nov-01 01:58N 51°53' E 004°27'0 0.0
2017-Nov-01 01:28N 51°53' E 004°27'0 0.0
2017-Nov-01 00:58N 51°53' E 004°27'0 0.0
2017-Nov-01 00:28N 51°53' E 004°27'0 0.0
2017-Oct-31 23:58N 51°53' E 004°27'  
Track history (hours):
 
Tides and Currents Weather Stations Pressure Air Temp Water Temp Dewpoint Dewpoint Depression Visibility Wind Speed Wind Dir Waves Ship Positions

Bittern

Last reported at 2017-Nov-10 23:56 UTC. Time now 2017-Nov-23 16:53 UTC.
Position N 36°21' E 014°47'.
Warning: this ship's position is 12 days out of date.

Length 189 m; draft 11.7 m.

Type: Cargo ship. MMSI: 538003710.

Date/timePositionNaut miles runAvg speedWind from/ knotsBaromVisibWave heightAir tempDewpointWater temp
2017-Nov-10 23:56N 36°21' E 014°47'510.0
2017-Nov-10 23:24N 36°23' E 014°41'410.0
2017-Nov-10 23:00N 36°24' E 014°36'510.0
2017-Nov-10 22:30N 36°25' E 014°30'5 9.6
2017-Nov-10 22:00N 36°27' E 014°25'5 9.3
2017-Nov-10 21:30N 36°29' E 014°19'5 9.5
2017-Nov-10 21:00N 36°30' E 014°14'5 9.7
2017-Nov-10 20:30N 36°32' E 014°08'  
2017-Nov-07 07:40N 36°06' W 004°20'211.2
2017-Nov-07 07:29N 36°05' W 004°23'510.9
2017-Nov-07 07:00N 36°05' W 004°29'510.9
2017-Nov-07 06:30N 36°04' W 004°36'511.0
2017-Nov-07 06:00N 36°03' W 004°43'2911.4
2017-Nov-07 03:28N 35°59' W 005°18'266 8.4
2017-Nov-05 19:50N 38°16' W 010°03'310.1
2017-Nov-05 19:30N 38°19' W 010°04'510.4
2017-Nov-05 19:00N 38°24' W 010°06'610.3
2017-Nov-05 18:28N 38°30' W 010°08'510.2
2017-Nov-05 17:58N 38°34' W 010°10'510.2
2017-Nov-05 17:30N 38°39' W 010°11'5 9.9
2017-Nov-05 17:00N 38°44' W 010°12'510.0
2017-Nov-05 16:30N 38°49' W 010°12'5 9.9
2017-Nov-05 16:00N 38°54' W 010°12'5 9.7
2017-Nov-05 15:30N 38°59' W 010°12'5 9.9
2017-Nov-05 15:00N 39°04' W 010°12'5 9.6
2017-Nov-05 14:30N 39°08' W 010°12'5 9.4
2017-Nov-05 14:00N 39°13' W 010°12'  
2017-Nov-03 04:53N 48°20' W 006°14'610.2
2017-Nov-03 04:15N 48°25' W 006°10'3 9.9
2017-Nov-03 03:56N 48°28' W 006°07'7 9.4
2017-Nov-03 03:12N 48°34' W 006°03'2 9.0
2017-Nov-03 02:56N 48°37' W 006°01'5 8.9
2017-Nov-03 02:21N 48°41' W 005°58'4 8.9
2017-Nov-03 01:52N 48°45' W 005°55'3 9.0
2017-Nov-03 01:30N 48°48' W 005°53'4 9.1
2017-Nov-03 01:00N 48°52' W 005°49'4 9.0
2017-Nov-03 00:30N 48°55' W 005°44'5 9.9
2017-Nov-03 00:00N 48°57' W 005°38'610.5
2017-Nov-02 23:27N 49°00' W 005°30'610.8
2017-Nov-02 22:56N 49°03' W 005°22'611.4
2017-Nov-02 22:23N 49°06' W 005°14'511.7
2017-Nov-02 21:58N 49°09' W 005°08'611.4
2017-Nov-02 21:24N 49°12' W 004°59'612.2
2017-Nov-02 20:55N 49°15' W 004°51'1312.0
2017-Nov-02 19:49N 49°22' W 004°34'411.6
2017-Nov-02 19:29N 49°24' W 004°29'1011.1
2017-Nov-02 18:33N 49°29' W 004°15'110.5
2017-Nov-02 18:26N 49°30' W 004°14'15 9.8
2017-Nov-02 16:57N 49°37' W 003°54'6 9.1
2017-Nov-02 16:19N 49°40' W 003°47'4 9.1
2017-Nov-02 15:53N 49°42' W 003°41'4 9.2
2017-Nov-02 15:28N 49°44' W 003°36'9 9.5
2017-Nov-02 14:33N 49°48' W 003°25'110.0
2017-Nov-02 14:27N 49°49' W 003°23'510.4
2017-Nov-02 14:00N 49°51' W 003°17'611.0
2017-Nov-02 13:30N 49°54' W 003°10'611.8
2017-Nov-02 13:00N 49°57' W 003°02'612.3
2017-Nov-02 12:30N 49°59' W 002°53'712.8
2017-Nov-02 11:58N 50°01' W 002°43'3012.3
2017-Nov-02 09:32N 50°09' W 001°58'011.1
2017-Nov-02 09:30N 50°09' W 001°57'510.3
2017-Nov-02 09:00N 50°11' W 001°49'5 9.5
2017-Nov-02 08:30N 50°12' W 001°42'4 8.7
2017-Nov-02 08:00N 50°13' W 001°36'4 8.2
2017-Nov-02 07:30N 50°14' W 001°29'4 7.7
2017-Nov-02 07:00N 50°15' W 001°24'4 7.3
2017-Nov-02 06:29N 50°15' W 001°18'4 7.3
2017-Nov-02 05:59N 50°16' W 001°12'4 7.3
2017-Nov-02 05:26N 50°18' W 001°06'4 7.9
2017-Nov-02 04:54N 50°19' W 000°60'2110.1
2017-Nov-02 02:50N 50°25' W 000°29'411.4
2017-Nov-02 02:30N 50°26' W 000°23'611.4
2017-Nov-02 02:00N 50°27' W 000°14'611.4
2017-Nov-02 01:30N 50°29' W 000°06'611.5
2017-Nov-02 01:00N 50°30' E 000°03'611.4
2017-Nov-02 00:30N 50°32' E 000°12'611.3
2017-Nov-02 00:00N 50°33' E 000°20'611.0
2017-Nov-01 23:30N 50°35' E 000°29'510.4
2017-Nov-01 23:00N 50°37' E 000°36'510.1
2017-Nov-01 22:30N 50°40' E 000°42'5 9.7
2017-Nov-01 22:00N 50°43' E 000°48'5 9.2
2017-Nov-01 21:30N 50°46' E 000°54'4 8.8
2017-Nov-01 21:00N 50°49' E 000°59'4 8.7
2017-Nov-01 20:30N 50°52' E 001°04'4 8.9
2017-Nov-01 20:00N 50°54' E 001°10'5 9.2
2017-Nov-01 19:30N 50°58' E 001°15'5 9.9
2017-Nov-01 19:00N 51°01' E 001°21'511.2
2017-Nov-01 18:30N 51°04' E 001°28'122 7.4
2017-Nov-01 01:58N 51°53' E 004°27'0 0.0
2017-Nov-01 01:28N 51°53' E 004°27'0 0.0
2017-Nov-01 00:58N 51°53' E 004°27'0 0.0
2017-Nov-01 00:28N 51°53' E 004°27'0 0.0
2017-Oct-31 23:58N 51°53' E 004°27'  

Dump ship's entire track history